sensor_id;sensor_type;location;lat;lon;timestamp;temperature;humidity
9544;DHT22;30418;51.45933468;7.33152330;2022-11-12T00:00:18;12.60;58.30
9544;DHT22;30418;51.45933468;7.33152330;2022-11-12T00:03:11;12.60;58.40
9544;DHT22;30418;51.45933468;7.33152330;2022-11-12T00:05:59;12.60;58.40
9544;DHT22;30418;51.45933468;7.33152330;2022-11-12T00:08:46;12.60;58.40
9544;DHT22;30418;51.45933468;7.33152330;2022-11-12T00:11:33;12.60;58.40
9544;DHT22;30418;51.45933468;7.33152330;2022-11-12T00:14:20;12.60;58.40
9544;DHT22;30418;51.45933468;7.33152330;2022-11-12T00:17:08;12.60;58.40
9544;DHT22;30418;51.45933468;7.33152330;2022-11-12T00:19:56;12.60;58.40
9544;DHT22;30418;51.45933468;7.33152330;2022-11-12T00:22:43;12.60;58.40
9544;DHT22;30418;51.45933468;7.33152330;2022-11-12T00:25:30;12.50;58.30
9544;DHT22;30418;51.45933468;7.33152330;2022-11-12T00:28:17;12.60;58.30
9544;DHT22;30418;51.45933468;7.33152330;2022-11-12T00:31:09;12.50;58.30
9544;DHT22;30418;51.45933468;7.33152330;2022-11-12T00:33:57;12.50;58.40
9544;DHT22;30418;51.45933468;7.33152330;2022-11-12T00:36:46;12.50;58.30
9544;DHT22;30418;51.45933468;7.33152330;2022-11-12T00:39:33;12.50;58.30
9544;DHT22;30418;51.45933468;7.33152330;2022-11-12T00:42:22;12.50;58.30
9544;DHT22;30418;51.45933468;7.33152330;2022-11-12T00:45:09;12.50;58.30
9544;DHT22;30418;51.45933468;7.33152330;2022-11-12T00:47:57;12.50;58.90
9544;DHT22;30418;51.45933468;7.33152330;2022-11-12T00:50:44;12.50;58.30
9544;DHT22;30418;51.45933468;7.33152330;2022-11-12T00:53:33;12.50;58.30
9544;DHT22;30418;51.45933468;7.33152330;2022-11-12T00:56:20;12.40;58.30
9544;DHT22;30418;51.45933468;7.33152330;2022-11-12T00:59:07;12.40;58.30
9544;DHT22;30418;51.45933468;7.33152330;2022-11-12T01:01:54;12.40;58.30
9544;DHT22;30418;51.45933468;7.33152330;2022-11-12T01:04:41;12.40;58.30
9544;DHT22;30418;51.45933468;7.33152330;2022-11-12T01:07:29;12.40;58.30
9544;DHT22;30418;51.45933468;7.33152330;2022-11-12T01:10:21;12.40;58.30
9544;DHT22;30418;51.45933468;7.33152330;2022-11-12T01:13:08;12.40;58.30
9544;DHT22;30418;51.45933468;7.33152330;2022-11-12T01:15:56;12.40;58.30
9544;DHT22;30418;51.45933468;7.33152330;2022-11-12T01:18:43;12.40;58.30
9544;DHT22;30418;51.45933468;7.33152330;2022-11-12T01:21:31;12.40;58.20
9544;DHT22;30418;51.45933468;7.33152330;2022-11-12T01:24:22;12.40;58.30
9544;DHT22;30418;51.45933468;7.33152330;2022-11-12T01:27:11;12.40;58.20
9544;DHT22;30418;51.45933468;7.33152330;2022-11-12T01:29:59;12.40;58.20
9544;DHT22;30418;51.45933468;7.33152330;2022-11-12T01:32:46;12.40;58.20
9544;DHT22;30418;51.45933468;7.33152330;2022-11-12T01:35:34;12.30;58.10
9544;DHT22;30418;51.45933468;7.33152330;2022-11-12T01:38:20;12.40;58.20
9544;DHT22;30418;51.45933468;7.33152330;2022-11-12T01:41:10;12.40;58.20
9544;DHT22;30418;51.45933468;7.33152330;2022-11-12T01:44:22;12.30;58.10
9544;DHT22;30418;51.45933468;7.33152330;2022-11-12T01:47:13;12.30;58.10
9544;DHT22;30418;51.45933468;7.33152330;2022-11-12T01:50:14;12.30;58.10
9544;DHT22;30418;51.45933468;7.33152330;2022-11-12T01:53:06;12.30;58.10
9544;DHT22;30418;51.45933468;7.33152330;2022-11-12T01:55:55;12.30;58.10
9544;DHT22;30418;51.45933468;7.33152330;2022-11-12T01:58:45;12.30;58.10
9544;DHT22;30418;51.45933468;7.33152330;2022-11-12T02:01:35;12.30;58.10
9544;DHT22;30418;51.45933468;7.33152330;2022-11-12T02:04:24;12.30;58.10
9544;DHT22;30418;51.45933468;7.33152330;2022-11-12T02:07:12;12.20;58.00
9544;DHT22;30418;51.45933468;7.33152330;2022-11-12T02:10:01;12.20;58.10
9544;DHT22;30418;51.45933468;7.33152330;2022-11-12T02:12:50;12.20;58.10
9544;DHT22;30418;51.45933468;7.33152330;2022-11-12T02:15:56;12.20;58.10
9544;DHT22;30418;51.45933468;7.33152330;2022-11-12T02:18:45;12.20;58.10
9544;DHT22;30418;51.45933468;7.33152330;2022-11-12T02:21:34;12.20;58.10
9544;DHT22;30418;51.45933468;7.33152330;2022-11-12T02:24:33;12.20;58.10
9544;DHT22;30418;51.45933468;7.33152330;2022-11-12T02:27:22;12.20;58.10
9544;DHT22;30418;51.45933468;7.33152330;2022-11-12T02:30:10;12.20;58.10
9544;DHT22;30418;51.45933468;7.33152330;2022-11-12T02:32:58;12.20;58.10
9544;DHT22;30418;51.45933468;7.33152330;2022-11-12T02:35:46;12.10;58.10
9544;DHT22;30418;51.45933468;7.33152330;2022-11-12T02:38:34;12.10;58.10
9544;DHT22;30418;51.45933468;7.33152330;2022-11-12T02:41:21;12.10;58.10
9544;DHT22;30418;51.45933468;7.33152330;2022-11-12T02:44:09;12.10;58.10
9544;DHT22;30418;51.45933468;7.33152330;2022-11-12T02:46:56;12.10;58.10
9544;DHT22;30418;51.45933468;7.33152330;2022-11-12T02:49:43;12.10;58.10
9544;DHT22;30418;51.45933468;7.33152330;2022-11-12T02:52:31;12.10;58.10
9544;DHT22;30418;51.45933468;7.33152330;2022-11-12T02:55:19;12.10;58.10
9544;DHT22;30418;51.45933468;7.33152330;2022-11-12T02:58:07;12.10;58.10
9544;DHT22;30418;51.45933468;7.33152330;2022-11-12T03:00:56;12.10;58.10
9544;DHT22;30418;51.45933468;7.33152330;2022-11-12T03:03:43;12.00;58.00
9544;DHT22;30418;51.45933468;7.33152330;2022-11-12T03:06:30;12.00;58.00
9544;DHT22;30418;51.45933468;7.33152330;2022-11-12T03:09:18;12.00;58.00
9544;DHT22;30418;51.45933468;7.33152330;2022-11-12T03:12:07;12.00;58.00
9544;DHT22;30418;51.45933468;7.33152330;2022-11-12T03:14:53;12.00;58.10
9544;DHT22;30418;51.45933468;7.33152330;2022-11-12T03:17:40;12.00;58.10
9544;DHT22;30418;51.45933468;7.33152330;2022-11-12T03:20:28;11.90;58.00
9544;DHT22;30418;51.45933468;7.33152330;2022-11-12T03:23:16;11.90;58.00
9544;DHT22;30418;51.45933468;7.33152330;2022-11-12T03:26:04;11.90;58.10
9544;DHT22;30418;51.45933468;7.33152330;2022-11-12T03:28:52;11.90;58.10
9544;DHT22;30418;51.45933468;7.33152330;2022-11-12T03:31:40;11.80;58.00
9544;DHT22;30418;51.45933468;7.33152330;2022-11-12T03:34:27;11.90;58.10
9544;DHT22;30418;51.45933468;7.33152330;2022-11-12T03:37:15;11.80;58.10
9544;DHT22;30418;51.45933468;7.33152330;2022-11-12T03:40:02;11.80;58.10
9544;DHT22;30418;51.45933468;7.33152330;2022-11-12T03:42:51;11.80;58.10
9544;DHT22;30418;51.45933468;7.33152330;2022-11-12T03:45:39;11.70;58.00
9544;DHT22;30418;51.45933468;7.33152330;2022-11-12T03:48:27;11.70;58.60
9544;DHT22;30418;51.45933468;7.33152330;2022-11-12T03:51:14;11.70;58.00
9544;DHT22;30418;51.45933468;7.33152330;2022-11-12T03:54:03;11.70;58.00
9544;DHT22;30418;51.45933468;7.33152330;2022-11-12T03:56:50;11.70;58.10
9544;DHT22;30418;51.45933468;7.33152330;2022-11-12T03:59:37;11.70;58.00
9544;DHT22;30418;51.45933468;7.33152330;2022-11-12T04:02:26;11.70;58.00
9544;DHT22;30418;51.45933468;7.33152330;2022-11-12T04:05:15;11.60;57.90
9544;DHT22;30418;51.45933468;7.33152330;2022-11-12T04:08:21;11.60;58.00
9544;DHT22;30418;51.45933468;7.33152330;2022-11-12T04:11:24;11.60;58.00
9544;DHT22;30418;51.45933468;7.33152330;2022-11-12T04:14:11;11.60;58.00
9544;DHT22;30418;51.45933468;7.33152330;2022-11-12T04:16:57;11.60;58.00
9544;DHT22;30418;51.45933468;7.33152330;2022-11-12T04:20:09;11.60;58.10
9544;DHT22;30418;51.45933468;7.33152330;2022-11-12T04:23:14;11.50;58.00
9544;DHT22;30418;51.45933468;7.33152330;2022-11-12T04:26:01;11.50;58.00
9544;DHT22;30418;51.45933468;7.33152330;2022-11-12T04:29:05;11.50;58.10
9544;DHT22;30418;51.45933468;7.33152330;2022-11-12T04:32:10;11.50;58.10
9544;DHT22;30418;51.45933468;7.33152330;2022-11-12T04:34:58;11.50;58.10
9544;DHT22;30418;51.45933468;7.33152330;2022-11-12T04:37:47;11.50;58.10
9544;DHT22;30418;51.45933468;7.33152330;2022-11-12T04:40:34;11.50;58.20
9544;DHT22;30418;51.45933468;7.33152330;2022-11-12T04:43:39;11.50;58.20
9544;DHT22;30418;51.45933468;7.33152330;2022-11-12T04:46:44;11.50;58.10
9544;DHT22;30418;51.45933468;7.33152330;2022-11-12T04:49:31;11.40;58.10
9544;DHT22;30418;51.45933468;7.33152330;2022-11-12T04:52:17;11.40;58.10
9544;DHT22;30418;51.45933468;7.33152330;2022-11-12T04:55:07;11.40;58.10
9544;DHT22;30418;51.45933468;7.33152330;2022-11-12T04:57:55;11.40;58.10
9544;DHT22;30418;51.45933468;7.33152330;2022-11-12T05:00:45;11.40;58.00
9544;DHT22;30418;51.45933468;7.33152330;2022-11-12T05:03:34;11.40;58.10
9544;DHT22;30418;51.45933468;7.33152330;2022-11-12T05:06:21;11.40;58.00
9544;DHT22;30418;51.45933468;7.33152330;2022-11-12T05:09:27;11.30;58.00
9544;DHT22;30418;51.45933468;7.33152330;2022-11-12T05:12:16;11.30;58.00
9544;DHT22;30418;51.45933468;7.33152330;2022-11-12T05:15:04;11.30;58.00
9544;DHT22;30418;51.45933468;7.33152330;2022-11-12T05:17:52;11.30;58.10
9544;DHT22;30418;51.45933468;7.33152330;2022-11-12T05:20:40;11.30;58.10
9544;DHT22;30418;51.45933468;7.33152330;2022-11-12T05:23:27;11.20;58.00
9544;DHT22;30418;51.45933468;7.33152330;2022-11-12T05:26:14;11.30;58.10
9544;DHT22;30418;51.45933468;7.33152330;2022-11-12T05:29:03;11.20;58.00
9544;DHT22;30418;51.45933468;7.33152330;2022-11-12T05:31:53;11.20;58.10
9544;DHT22;30418;51.45933468;7.33152330;2022-11-12T05:34:41;11.20;58.00
9544;DHT22;30418;51.45933468;7.33152330;2022-11-12T05:37:28;11.20;58.10
9544;DHT22;30418;51.45933468;7.33152330;2022-11-12T05:40:16;11.20;58.00
9544;DHT22;30418;51.45933468;7.33152330;2022-11-12T05:43:03;11.20;58.00
9544;DHT22;30418;51.45933468;7.33152330;2022-11-12T05:45:51;11.20;58.10
9544;DHT22;30418;51.45933468;7.33152330;2022-11-12T05:48:39;11.10;58.00
9544;DHT22;30418;51.45933468;7.33152330;2022-11-12T05:51:26;11.10;58.00
9544;DHT22;30418;51.45933468;7.33152330;2022-11-12T05:54:13;11.10;58.00
9544;DHT22;30418;51.45933468;7.33152330;2022-11-12T05:57:00;11.10;58.10
9544;DHT22;30418;51.45933468;7.33152330;2022-11-12T05:59:48;11.10;58.10
9544;DHT22;30418;51.45933468;7.33152330;2022-11-12T06:02:36;11.10;58.10
9544;DHT22;30418;51.45933468;7.33152330;2022-11-12T06:05:24;11.10;58.20
9544;DHT22;30418;51.45933468;7.33152330;2022-11-12T06:08:11;11.00;58.10
9544;DHT22;30418;51.45933468;7.33152330;2022-11-12T06:10:58;11.00;58.10
9544;DHT22;30418;51.45933468;7.33152330;2022-11-12T06:13:45;11.00;58.10
9544;DHT22;30418;51.45933468;7.33152330;2022-11-12T06:16:33;11.00;58.10
9544;DHT22;30418;51.45933468;7.33152330;2022-11-12T06:19:21;11.00;58.10
9544;DHT22;30418;51.45933468;7.33152330;2022-11-12T06:22:08;11.00;58.10
9544;DHT22;30418;51.45933468;7.33152330;2022-11-12T06:24:55;10.90;58.00
9544;DHT22;30418;51.45933468;7.33152330;2022-11-12T06:27:42;10.90;58.10
9544;DHT22;30418;51.45933468;7.33152330;2022-11-12T06:30:30;10.90;58.10
9544;DHT22;30418;51.45933468;7.33152330;2022-11-12T06:33:17;10.90;58.10
9544;DHT22;30418;51.45933468;7.33152330;2022-11-12T06:36:07;10.90;58.10
9544;DHT22;30418;51.45933468;7.33152330;2022-11-12T06:38:56;10.90;58.20
9544;DHT22;30418;51.45933468;7.33152330;2022-11-12T06:42:01;10.90;58.10
9544;DHT22;30418;51.45933468;7.33152330;2022-11-12T06:44:48;10.90;58.20
9544;DHT22;30418;51.45933468;7.33152330;2022-11-12T06:47:35;10.90;58.20
9544;DHT22;30418;51.45933468;7.33152330;2022-11-12T06:50:23;10.90;58.20
9544;DHT22;30418;51.45933468;7.33152330;2022-11-12T06:53:11;10.80;58.20
9544;DHT22;30418;51.45933468;7.33152330;2022-11-12T06:56:01;10.80;58.80
9544;DHT22;30418;51.45933468;7.33152330;2022-11-12T06:58:49;10.80;58.30
9544;DHT22;30418;51.45933468;7.33152330;2022-11-12T07:01:36;10.80;58.20
9544;DHT22;30418;51.45933468;7.33152330;2022-11-12T07:04:23;10.80;58.20
9544;DHT22;30418;51.45933468;7.33152330;2022-11-12T07:07:10;10.80;58.30
9544;DHT22;30418;51.45933468;7.33152330;2022-11-12T07:09:59;10.80;58.30
9544;DHT22;30418;51.45933468;7.33152330;2022-11-12T07:12:47;10.80;58.30
9544;DHT22;30418;51.45933468;7.33152330;2022-11-12T07:15:38;10.80;58.30
9544;DHT22;30418;51.45933468;7.33152330;2022-11-12T07:18:25;10.80;58.30
9544;DHT22;30418;51.45933468;7.33152330;2022-11-12T07:21:14;10.80;58.30
9544;DHT22;30418;51.45933468;7.33152330;2022-11-12T07:24:03;10.80;58.30
9544;DHT22;30418;51.45933468;7.33152330;2022-11-12T07:26:52;10.80;58.30
9544;DHT22;30418;51.45933468;7.33152330;2022-11-12T07:29:40;10.80;58.30
9544;DHT22;30418;51.45933468;7.33152330;2022-11-12T07:32:33;10.80;58.30
9544;DHT22;30418;51.45933468;7.33152330;2022-11-12T07:35:28;10.80;58.40
9544;DHT22;30418;51.45933468;7.33152330;2022-11-12T07:38:16;10.80;58.40
9544;DHT22;30418;51.45933468;7.33152330;2022-11-12T07:41:04;10.70;58.40
9544;DHT22;30418;51.45933468;7.33152330;2022-11-12T07:43:54;10.80;58.50
9544;DHT22;30418;51.45933468;7.33152330;2022-11-12T07:46:41;10.80;58.40
9544;DHT22;30418;51.45933468;7.33152330;2022-11-12T07:49:29;10.80;58.50
9544;DHT22;30418;51.45933468;7.33152330;2022-11-12T07:52:16;10.80;58.50
9544;DHT22;30418;51.45933468;7.33152330;2022-11-12T07:55:03;10.80;58.60
9544;DHT22;30418;51.45933468;7.33152330;2022-11-12T07:57:51;10.80;58.60
9544;DHT22;30418;51.45933468;7.33152330;2022-11-12T08:00:40;10.80;58.60
9544;DHT22;30418;51.45933468;7.33152330;2022-11-12T08:03:27;10.80;58.70
9544;DHT22;30418;51.45933468;7.33152330;2022-11-12T08:06:14;10.80;58.70
9544;DHT22;30418;51.45933468;7.33152330;2022-11-12T08:09:04;10.90;58.80
9544;DHT22;30418;51.45933468;7.33152330;2022-11-12T08:11:53;10.90;58.90
9544;DHT22;30418;51.45933468;7.33152330;2022-11-12T08:14:40;10.90;58.90
9544;DHT22;30418;51.45933468;7.33152330;2022-11-12T08:17:28;10.90;58.90
9544;DHT22;30418;51.45933468;7.33152330;2022-11-12T08:20:15;10.90;58.90
9544;DHT22;30418;51.45933468;7.33152330;2022-11-12T08:23:03;10.90;59.00
9544;DHT22;30418;51.45933468;7.33152330;2022-11-12T08:25:50;11.00;59.00
9544;DHT22;30418;51.45933468;7.33152330;2022-11-12T08:28:38;11.00;59.00
9544;DHT22;30418;51.45933468;7.33152330;2022-11-12T08:31:25;11.00;59.70
9544;DHT22;30418;51.45933468;7.33152330;2022-11-12T08:34:14;11.10;59.20
9544;DHT22;30418;51.45933468;7.33152330;2022-11-12T08:37:07;11.10;59.20
9544;DHT22;30418;51.45933468;7.33152330;2022-11-12T08:39:54;11.20;59.20
9544;DHT22;30418;51.45933468;7.33152330;2022-11-12T08:42:41;11.20;59.20
9544;DHT22;30418;51.45933468;7.33152330;2022-11-12T08:45:30;11.20;59.20
9544;DHT22;30418;51.45933468;7.33152330;2022-11-12T08:48:18;11.30;59.30
9544;DHT22;30418;51.45933468;7.33152330;2022-11-12T08:51:07;11.30;59.30
9544;DHT22;30418;51.45933468;7.33152330;2022-11-12T08:53:54;11.30;59.30
9544;DHT22;30418;51.45933468;7.33152330;2022-11-12T08:56:41;11.40;59.40
9544;DHT22;30418;51.45933468;7.33152330;2022-11-12T08:59:28;11.40;59.40
9544;DHT22;30418;51.45933468;7.33152330;2022-11-12T09:02:15;11.40;59.40
9544;DHT22;30418;51.45933468;7.33152330;2022-11-12T09:05:03;11.50;59.50
9544;DHT22;30418;51.45933468;7.33152330;2022-11-12T09:08:00;11.50;59.50
9544;DHT22;30418;51.45933468;7.33152330;2022-11-12T09:10:50;11.50;59.60
9544;DHT22;30418;51.45933468;7.33152330;2022-11-12T09:13:38;11.50;59.60
9544;DHT22;30418;51.45933468;7.33152330;2022-11-12T09:16:25;11.60;59.60
9544;DHT22;30418;51.45933468;7.33152330;2022-11-12T09:19:12;11.60;59.60
9544;DHT22;30418;51.45933468;7.33152330;2022-11-12T09:21:59;11.60;59.60
9544;DHT22;30418;51.45933468;7.33152330;2022-11-12T09:24:48;11.70;59.70
9544;DHT22;30418;51.45933468;7.33152330;2022-11-12T09:27:35;11.70;59.70
9544;DHT22;30418;51.45933468;7.33152330;2022-11-12T09:30:23;11.80;59.80
9544;DHT22;30418;51.45933468;7.33152330;2022-11-12T09:33:11;11.80;59.80
9544;DHT22;30418;51.45933468;7.33152330;2022-11-12T09:36:00;11.80;59.80
9544;DHT22;30418;51.45933468;7.33152330;2022-11-12T09:38:47;11.90;59.90
9544;DHT22;30418;51.45933468;7.33152330;2022-11-12T09:41:37;11.90;59.90
9544;DHT22;30418;51.45933468;7.33152330;2022-11-12T09:44:25;12.00;59.90
9544;DHT22;30418;51.45933468;7.33152330;2022-11-12T09:47:24;12.10;60.70
9544;DHT22;30418;51.45933468;7.33152330;2022-11-12T09:50:19;12.10;60.00
9544;DHT22;30418;51.45933468;7.33152330;2022-11-12T09:53:12;12.20;60.00
9544;DHT22;30418;51.45933468;7.33152330;2022-11-12T09:56:06;12.20;60.00
9544;DHT22;30418;51.45933468;7.33152330;2022-11-12T09:58:58;12.20;60.00
9544;DHT22;30418;51.45933468;7.33152330;2022-11-12T10:01:56;12.30;60.00
9544;DHT22;30418;51.45933468;7.33152330;2022-11-12T10:05:02;12.40;60.00
9544;DHT22;30418;51.45933468;7.33152330;2022-11-12T10:08:25;12.50;60.00
9544;DHT22;30418;51.45933468;7.33152330;2022-11-12T10:15:36;12.60;59.90
9544;DHT22;30418;51.45933468;7.33152330;2022-11-12T10:18:58;12.70;59.60
9544;DHT22;30418;51.45933468;7.33152330;2022-11-12T10:21:59;12.70;59.60
9544;DHT22;30418;51.45933468;7.33152330;2022-11-12T10:24:53;12.80;59.60
9544;DHT22;30418;51.45933468;7.33152330;2022-11-12T10:27:41;12.80;59.50
9544;DHT22;30418;51.45933468;7.33152330;2022-11-12T10:30:29;12.90;59.50
9544;DHT22;30418;51.45933468;7.33152330;2022-11-12T10:33:17;12.90;59.20
9544;DHT22;30418;51.45933468;7.33152330;2022-11-12T10:36:17;13.00;59.10
9544;DHT22;30418;51.45933468;7.33152330;2022-11-12T10:39:05;13.10;59.20
9544;DHT22;30418;51.45933468;7.33152330;2022-11-12T10:42:02;13.10;59.20
9544;DHT22;30418;51.45933468;7.33152330;2022-11-12T10:44:51;13.20;59.20
9544;DHT22;30418;51.45933468;7.33152330;2022-11-12T10:47:39;13.30;59.30
9544;DHT22;30418;51.45933468;7.33152330;2022-11-12T10:50:35;13.30;59.30
9544;DHT22;30418;51.45933468;7.33152330;2022-11-12T10:53:32;13.30;59.10
9544;DHT22;30418;51.45933468;7.33152330;2022-11-12T10:56:26;13.40;59.00
9544;DHT22;30418;51.45933468;7.33152330;2022-11-12T10:59:16;13.50;59.10
9544;DHT22;30418;51.45933468;7.33152330;2022-11-12T11:02:15;13.50;59.00
9544;DHT22;30418;51.45933468;7.33152330;2022-11-12T11:05:26;13.60;58.60
9544;DHT22;30418;51.45933468;7.33152330;2022-11-12T11:08:32;13.70;58.40
9544;DHT22;30418;51.45933468;7.33152330;2022-11-12T11:11:24;13.70;58.40
9544;DHT22;30418;51.45933468;7.33152330;2022-11-12T11:14:32;13.80;58.40
9544;DHT22;30418;51.45933468;7.33152330;2022-11-12T11:17:20;13.90;58.30
9544;DHT22;30418;51.45933468;7.33152330;2022-11-12T11:20:15;13.90;58.40
9544;DHT22;30418;51.45933468;7.33152330;2022-11-12T11:23:14;14.00;58.50
9544;DHT22;30418;51.45933468;7.33152330;2022-11-12T11:26:15;14.00;58.40
9544;DHT22;30418;51.45933468;7.33152330;2022-11-12T11:29:22;14.10;58.60
9544;DHT22;30418;51.45933468;7.33152330;2022-11-12T11:32:29;14.20;58.90
9544;DHT22;30418;51.45933468;7.33152330;2022-11-12T11:35:30;14.20;59.10
9544;DHT22;30418;51.45933468;7.33152330;2022-11-12T11:38:39;14.20;59.20
9544;DHT22;30418;51.45933468;7.33152330;2022-11-12T11:41:44;14.30;59.40
9544;DHT22;30418;51.45933468;7.33152330;2022-11-12T11:44:45;14.30;59.50
9544;DHT22;30418;51.45933468;7.33152330;2022-11-12T11:47:44;14.40;59.60
9544;DHT22;30418;51.45933468;7.33152330;2022-11-12T11:50:56;14.40;59.70
9544;DHT22;30418;51.45933468;7.33152330;2022-11-12T11:53:54;14.50;59.90
9544;DHT22;30418;51.45933468;7.33152330;2022-11-12T11:56:48;14.50;60.10
9544;DHT22;30418;51.45933468;7.33152330;2022-11-12T11:59:47;14.50;60.30
9544;DHT22;30418;51.45933468;7.33152330;2022-11-12T12:03:08;14.50;60.30
9544;DHT22;30418;51.45933468;7.33152330;2022-11-12T12:06:17;14.60;60.40
9544;DHT22;30418;51.45933468;7.33152330;2022-11-12T12:09:20;14.60;60.40
9544;DHT22;30418;51.45933468;7.33152330;2022-11-12T12:12:25;14.60;60.40
9544;DHT22;30418;51.45933468;7.33152330;2022-11-12T12:15:39;14.60;60.50
9544;DHT22;30418;51.45933468;7.33152330;2022-11-12T12:18:38;14.60;60.40
9544;DHT22;30418;51.45933468;7.33152330;2022-11-12T12:21:31;14.70;60.60
9544;DHT22;30418;51.45933468;7.33152330;2022-11-12T12:24:24;14.70;60.70
9544;DHT22;30418;51.45933468;7.33152330;2022-11-12T12:27:16;14.70;60.90
9544;DHT22;30418;51.45933468;7.33152330;2022-11-12T12:30:11;14.70;60.70
9544;DHT22;30418;51.45933468;7.33152330;2022-11-12T12:33:10;14.70;60.80
9544;DHT22;30418;51.45933468;7.33152330;2022-11-12T12:36:08;14.80;61.30
9544;DHT22;30418;51.45933468;7.33152330;2022-11-12T12:39:08;14.80;61.20
9544;DHT22;30418;51.45933468;7.33152330;2022-11-12T12:42:03;14.80;61.30
9544;DHT22;30418;51.45933468;7.33152330;2022-11-12T12:44:53;14.90;61.20
9544;DHT22;30418;51.45933468;7.33152330;2022-11-12T12:47:50;14.80;61.10
9544;DHT22;30418;51.45933468;7.33152330;2022-11-12T12:50:38;14.90;61.20
9544;DHT22;30418;51.45933468;7.33152330;2022-11-12T12:53:31;14.90;61.20
9544;DHT22;30418;51.45933468;7.33152330;2022-11-12T12:56:42;15.00;61.40
9544;DHT22;30418;51.45933468;7.33152330;2022-11-12T12:59:32;15.00;61.40
9544;DHT22;30418;51.45933468;7.33152330;2022-11-12T13:02:22;15.00;61.30
9544;DHT22;30418;51.45933468;7.33152330;2022-11-12T13:05:28;15.00;61.30
9544;DHT22;30418;51.45933468;7.33152330;2022-11-12T13:08:19;15.00;61.50
9544;DHT22;30418;51.45933468;7.33152330;2022-11-12T13:11:09;15.00;61.40
9544;DHT22;30418;51.45933468;7.33152330;2022-11-12T13:17:54;15.10;61.50
9544;DHT22;30418;51.45933468;7.33152330;2022-11-12T13:20:42;15.10;61.40
9544;DHT22;30418;51.45933468;7.33152330;2022-11-12T13:23:56;15.10;61.50
9544;DHT22;30418;51.45933468;7.33152330;2022-11-12T13:26:56;15.20;61.50
9544;DHT22;30418;51.45933468;7.33152330;2022-11-12T13:29:45;15.20;61.60
9544;DHT22;30418;51.45933468;7.33152330;2022-11-12T13:32:35;15.20;61.60
9544;DHT22;30418;51.45933468;7.33152330;2022-11-12T13:35:27;15.20;61.60
9544;DHT22;30418;51.45933468;7.33152330;2022-11-12T13:38:16;15.20;61.30
9544;DHT22;30418;51.45933468;7.33152330;2022-11-12T13:41:11;15.30;61.30
9544;DHT22;30418;51.45933468;7.33152330;2022-11-12T13:44:06;15.30;61.20
9544;DHT22;30418;51.45933468;7.33152330;2022-11-12T13:46:59;15.30;61.30
9544;DHT22;30418;51.45933468;7.33152330;2022-11-12T13:49:47;15.30;61.20
9544;DHT22;30418;51.45933468;7.33152330;2022-11-12T13:52:38;15.30;61.00
9544;DHT22;30418;51.45933468;7.33152330;2022-11-12T13:55:29;15.30;60.80
9544;DHT22;30418;51.45933468;7.33152330;2022-11-12T13:58:25;15.40;60.80
9544;DHT22;30418;51.45933468;7.33152330;2022-11-12T14:01:19;15.30;60.50
9544;DHT22;30418;51.45933468;7.33152330;2022-11-12T14:04:09;15.30;60.60
9544;DHT22;30418;51.45933468;7.33152330;2022-11-12T14:07:06;15.40;60.70
9544;DHT22;30418;51.45933468;7.33152330;2022-11-12T14:10:08;15.40;60.60
9544;DHT22;30418;51.45933468;7.33152330;2022-11-12T14:13:18;15.40;60.60
9544;DHT22;30418;51.45933468;7.33152330;2022-11-12T14:16:21;15.40;60.60
9544;DHT22;30418;51.45933468;7.33152330;2022-11-12T14:19:34;15.30;60.60
9544;DHT22;30418;51.45933468;7.33152330;2022-11-12T14:22:41;15.40;60.70
9544;DHT22;30418;51.45933468;7.33152330;2022-11-12T14:25:30;15.40;60.70
9544;DHT22;30418;51.45933468;7.33152330;2022-11-12T14:28:24;15.40;60.70
9544;DHT22;30418;51.45933468;7.33152330;2022-11-12T14:31:14;15.30;61.10
9544;DHT22;30418;51.45933468;7.33152330;2022-11-12T14:34:19;15.30;60.70
9544;DHT22;30418;51.45933468;7.33152330;2022-11-12T14:37:22;15.30;60.60
9544;DHT22;30418;51.45933468;7.33152330;2022-11-12T14:40:30;15.30;60.70
9544;DHT22;30418;51.45933468;7.33152330;2022-11-12T14:43:34;15.30;60.60
9544;DHT22;30418;51.45933468;7.33152330;2022-11-12T14:46:26;15.30;60.60
9544;DHT22;30418;51.45933468;7.33152330;2022-11-12T14:49:18;15.30;60.60
9544;DHT22;30418;51.45933468;7.33152330;2022-11-12T14:52:11;15.30;60.50
9544;DHT22;30418;51.45933468;7.33152330;2022-11-12T14:55:06;15.30;60.50
9544;DHT22;30418;51.45933468;7.33152330;2022-11-12T14:57:58;15.30;60.40
9544;DHT22;30418;51.45933468;7.33152330;2022-11-12T15:00:47;15.30;60.20
9544;DHT22;30418;51.45933468;7.33152330;2022-11-12T15:03:35;15.30;60.20
9544;DHT22;30418;51.45933468;7.33152330;2022-11-12T15:06:28;15.30;60.20
9544;DHT22;30418;51.45933468;7.33152330;2022-11-12T15:09:16;15.20;60.10
9544;DHT22;30418;51.45933468;7.33152330;2022-11-12T15:12:09;15.20;60.10
9544;DHT22;30418;51.45933468;7.33152330;2022-11-12T15:15:09;15.20;60.10
9544;DHT22;30418;51.45933468;7.33152330;2022-11-12T15:18:06;15.20;60.00
9544;DHT22;30418;51.45933468;7.33152330;2022-11-12T15:21:11;15.20;60.00
9544;DHT22;30418;51.45933468;7.33152330;2022-11-12T15:24:05;15.20;60.00
9544;DHT22;30418;51.45933468;7.33152330;2022-11-12T15:27:01;15.20;60.00
9544;DHT22;30418;51.45933468;7.33152330;2022-11-12T15:30:22;15.10;60.00
9544;DHT22;30418;51.45933468;7.33152330;2022-11-12T15:33:17;15.10;60.00
9544;DHT22;30418;51.45933468;7.33152330;2022-11-12T15:36:14;15.10;60.80
9544;DHT22;30418;51.45933468;7.33152330;2022-11-12T15:39:03;15.00;60.00
9544;DHT22;30418;51.45933468;7.33152330;2022-11-12T15:41:59;15.00;60.00
9544;DHT22;30418;51.45933468;7.33152330;2022-11-12T15:44:50;14.90;59.90
9544;DHT22;30418;51.45933468;7.33152330;2022-11-12T15:47:41;14.90;59.90
9544;DHT22;30418;51.45933468;7.33152330;2022-11-12T15:50:30;14.90;59.90
9544;DHT22;30418;51.45933468;7.33152330;2022-11-12T15:53:17;14.80;59.90
9544;DHT22;30418;51.45933468;7.33152330;2022-11-12T15:56:07;14.90;60.00
9544;DHT22;30418;51.45933468;7.33152330;2022-11-12T15:58:57;14.80;59.90